createdAt,value
2017-12-25T00:02:06.695Z,101025.58
2017-12-25T00:04:34.094Z,101027.61
2017-12-25T00:07:01.516Z,101026.16
2017-12-25T00:09:28.903Z,101019.06
2017-12-25T00:11:56.290Z,101014.80
2017-12-25T00:14:23.705Z,101011.11
2017-12-25T00:16:51.091Z,101009.52
2017-12-25T00:19:18.503Z,101019.33
2017-12-25T00:21:45.890Z,101006.58
2017-12-25T00:24:13.303Z,101010.69
2017-12-25T00:26:40.710Z,101009.61
2017-12-25T00:29:08.110Z,101013.23
2017-12-25T00:31:35.510Z,101016.17
2017-12-25T00:34:02.915Z,101017.53
2017-12-25T00:36:30.306Z,101024.98
2017-12-25T00:38:57.707Z,101026.05
2017-12-25T00:41:25.099Z,101026.14
2017-12-25T00:43:52.490Z,101029.04
2017-12-25T00:46:19.895Z,101037.53
2017-12-25T00:48:47.305Z,101035.22
2017-12-25T00:51:14.701Z,101034.41
2017-12-25T00:53:42.102Z,101025.87
2017-12-25T00:56:09.495Z,101032.17
2017-12-25T00:58:36.931Z,101028.17
2017-12-25T01:01:04.351Z,101027.41
2017-12-25T01:03:31.738Z,101027.70
2017-12-25T01:05:59.145Z,101029.16
2017-12-25T01:08:26.550Z,101028.76
2017-12-25T01:10:53.954Z,101033.50
2017-12-25T01:13:21.346Z,101024.11
2017-12-25T01:15:48.755Z,101018.91
2017-12-25T01:18:16.147Z,101019.58
2017-12-25T01:20:43.562Z,101022.91
2017-12-25T01:23:10.970Z,101016.72
2017-12-25T01:25:38.365Z,101019.72
2017-12-25T01:28:05.762Z,101020.48
2017-12-25T01:30:33.160Z,101015.05
2017-12-25T01:33:00.559Z,101022.67
2017-12-25T01:35:27.979Z,101014.30
2017-12-25T01:37:55.394Z,101023.50
2017-12-25T01:42:56.708Z,101022.73
2017-12-25T01:45:24.106Z,101004.55
2017-12-25T01:47:51.538Z,101013.52
2017-12-25T01:50:18.940Z,101008.59
2017-12-25T01:52:46.327Z,101003.28
2017-12-25T01:55:13.734Z,101002.77
2017-12-25T01:57:49.616Z,101004.92
2017-12-25T02:00:28.843Z,101000.51
2017-12-25T02:02:57.138Z,101010.18
2017-12-25T02:05:42.055Z,101010.81
2017-12-25T02:08:27.823Z,101002.97
2017-12-25T02:10:55.232Z,101004.29
2017-12-25T02:13:22.626Z,101005.44
2017-12-25T02:15:50.038Z,101000.52
2017-12-25T02:18:17.439Z,101012.29
2017-12-25T02:20:44.851Z,101006.16
2017-12-25T02:23:12.232Z,100999.56
2017-12-25T02:25:39.631Z,101007.47
2017-12-25T02:28:07.030Z,101001.14
2017-12-25T02:30:34.434Z,101003.64
2017-12-25T02:33:01.823Z,101004.22
2017-12-25T02:35:29.286Z,100996.98
2017-12-25T02:37:56.685Z,100997.79
2017-12-25T02:40:24.083Z,100998.73
2017-12-25T02:42:51.481Z,100999.19
2017-12-25T02:45:18.887Z,100998.81
2017-12-25T02:47:46.282Z,100994.64
2017-12-25T02:50:13.683Z,100989.23
2017-12-25T02:52:41.086Z,100982.92
2017-12-25T02:55:08.493Z,100989.09
2017-12-25T02:57:35.880Z,100976.85
2017-12-25T03:00:04.009Z,100972.37
2017-12-25T03:02:31.511Z,100968.88
2017-12-25T03:04:58.914Z,100976.47
2017-12-25T03:07:26.303Z,100965.68
2017-12-25T03:09:53.784Z,100972.45
2017-12-25T03:12:21.184Z,100971.40
2017-12-25T03:14:48.594Z,100966.40
2017-12-25T03:17:16.184Z,100959.55
2017-12-25T03:19:43.583Z,100960.67
2017-12-25T03:22:10.995Z,100964.77
2017-12-25T03:24:38.414Z,100967.69
2017-12-25T03:27:05.799Z,100958.61
2017-12-25T03:29:33.185Z,100959.61
2017-12-25T03:32:00.582Z,100962.21
2017-12-25T03:34:28.007Z,100952.82
2017-12-25T03:36:55.488Z,100952.27
2017-12-25T03:39:22.879Z,100955.56
2017-12-25T03:41:50.276Z,100950.05
2017-12-25T03:44:17.671Z,100952.58
2017-12-25T03:46:45.067Z,100956.87
2017-12-25T03:49:12.449Z,100950.36
2017-12-25T03:51:39.918Z,100949.91
2017-12-25T03:54:07.377Z,100957.30
2017-12-25T03:56:34.779Z,100953.36
2017-12-25T03:59:02.170Z,100953.59
2017-12-25T04:01:29.650Z,100946.98
2017-12-25T04:03:57.046Z,100953.20
2017-12-25T04:06:24.444Z,100946.69
2017-12-25T04:08:51.855Z,100957.11
2017-12-25T04:11:19.279Z,100946.33
2017-12-25T04:13:46.667Z,100950.93
2017-12-25T04:16:14.070Z,100946.50
2017-12-25T04:18:41.464Z,100941.98
2017-12-25T04:21:08.887Z,100940.39
2017-12-25T04:23:36.278Z,100938.69
2017-12-25T04:26:03.678Z,100941.31
2017-12-25T04:28:31.066Z,100937.81
2017-12-25T04:30:58.462Z,100930.31
2017-12-25T04:33:25.862Z,100942.15
2017-12-25T04:35:53.262Z,100931.39
2017-12-25T04:38:20.666Z,100929.19
2017-12-25T04:40:48.073Z,100923.50
2017-12-25T04:43:15.466Z,100924.78
2017-12-25T04:45:42.854Z,100919.46
2017-12-25T04:48:10.298Z,100922.30
2017-12-25T04:50:37.690Z,100915.19
2017-12-25T04:53:05.112Z,100921.88
2017-12-25T04:55:32.511Z,100914.66
2017-12-25T04:57:59.918Z,100914.07
2017-12-25T05:00:27.316Z,100916.09
2017-12-25T05:02:54.707Z,100912.75
2017-12-25T05:05:22.127Z,100915.05
2017-12-25T05:07:49.520Z,100913.80
2017-12-25T05:10:16.927Z,100912.30
2017-12-25T05:12:44.327Z,100914.72
2017-12-25T05:15:11.735Z,100910.77
2017-12-25T05:17:39.162Z,100908.28
2017-12-25T05:20:06.559Z,100903.39
2017-12-25T05:22:34.010Z,100903.31
2017-12-25T05:25:01.407Z,100902.14
2017-12-25T05:27:28.806Z,100899.91
2017-12-25T05:29:56.203Z,100902.63
2017-12-25T05:32:23.600Z,100890.46
2017-12-25T05:34:50.986Z,100894.53
2017-12-25T05:37:18.389Z,100893.03
2017-12-25T05:39:45.899Z,100890.05
2017-12-25T05:42:13.297Z,100895.64
2017-12-25T05:44:40.775Z,100885.56
2017-12-25T05:47:08.170Z,100883.20
2017-12-25T05:49:35.583Z,100885.86
2017-12-25T05:52:02.979Z,100879.34
2017-12-25T05:54:30.391Z,100883.05
2017-12-25T05:56:57.782Z,100883.88
2017-12-25T05:59:25.175Z,100888.00
2017-12-25T06:01:52.572Z,100876.39
2017-12-25T06:04:19.963Z,100879.59
2017-12-25T06:06:47.359Z,100879.62
2017-12-25T06:09:14.756Z,100880.63
2017-12-25T06:11:42.163Z,100872.31
2017-12-25T06:14:09.553Z,100873.52
2017-12-25T06:16:36.970Z,100872.26
2017-12-25T06:19:04.374Z,100874.02
2017-12-25T06:21:31.763Z,100882.25
2017-12-25T06:23:59.155Z,100880.66
2017-12-25T06:26:26.616Z,100890.61
2017-12-25T06:28:54.009Z,100881.63
2017-12-25T06:31:21.407Z,100878.20
2017-12-25T06:33:48.795Z,100872.19
2017-12-25T06:36:16.182Z,100878.23
2017-12-25T06:38:43.574Z,100883.31
2017-12-25T06:41:11.078Z,100878.82
2017-12-25T06:43:38.543Z,100877.77
2017-12-25T06:46:05.925Z,100877.90
2017-12-25T06:48:33.322Z,100873.12
2017-12-25T06:51:00.728Z,100860.83
2017-12-25T06:53:28.130Z,100855.92
2017-12-25T06:55:55.522Z,100855.17
2017-12-25T06:58:22.920Z,100863.81
2017-12-25T07:00:50.335Z,100854.98
2017-12-25T07:03:17.738Z,100851.84
2017-12-25T07:05:45.231Z,100848.02
2017-12-25T07:08:12.651Z,100850.75
2017-12-25T07:10:40.043Z,100844.23
2017-12-25T07:13:07.451Z,100857.72
2017-12-25T07:15:34.842Z,100841.17
2017-12-25T07:18:02.239Z,100843.31
2017-12-25T07:20:29.640Z,100850.20
2017-12-25T07:22:57.047Z,100864.02
2017-12-25T07:25:24.435Z,100853.60
2017-12-25T07:27:51.930Z,100844.94
2017-12-25T07:30:19.318Z,100850.02
2017-12-25T07:32:46.727Z,100846.09
2017-12-25T07:35:14.114Z,100841.52
2017-12-25T07:37:41.514Z,100848.47
2017-12-25T07:40:09.023Z,100845.08
2017-12-25T07:42:36.407Z,100844.30
2017-12-25T07:45:03.818Z,100853.20
2017-12-25T07:47:31.233Z,100847.93
2017-12-25T07:49:58.615Z,100858.53
2017-12-25T07:52:26.011Z,100860.58
2017-12-25T07:54:53.443Z,100850.80
2017-12-25T07:57:20.847Z,100850.92
2017-12-25T07:59:48.244Z,100852.84
2017-12-25T08:02:15.643Z,100856.26
2017-12-25T08:04:43.051Z,100853.38
2017-12-25T08:07:10.523Z,100858.59
2017-12-25T08:09:37.915Z,100857.63
2017-12-25T08:12:05.319Z,100860.39
2017-12-25T08:14:32.711Z,100863.48
2017-12-25T08:17:00.106Z,100854.61
2017-12-25T08:19:27.601Z,100853.57
2017-12-25T08:21:54.991Z,100856.39
2017-12-25T08:24:22.416Z,100854.16
2017-12-25T08:26:49.845Z,100852.89
2017-12-25T08:29:17.235Z,100848.63
2017-12-25T08:31:44.638Z,100837.95
2017-12-25T08:34:12.036Z,100837.98
2017-12-25T08:36:39.435Z,100841.27
2017-12-25T08:39:06.868Z,100849.92
2017-12-25T08:41:34.253Z,100846.49
2017-12-25T08:44:01.648Z,100843.76
2017-12-25T08:46:29.043Z,100845.05
2017-12-25T08:48:56.443Z,100844.02
2017-12-25T08:51:23.834Z,100845.59
2017-12-25T08:53:51.275Z,100851.41
2017-12-25T08:56:18.746Z,100847.76
2017-12-25T08:58:46.194Z,100850.86
2017-12-25T09:01:13.532Z,100858.77
2017-12-25T09:03:40.955Z,100855.97
2017-12-25T09:06:08.459Z,100847.47
2017-12-25T09:08:35.860Z,100852.33
2017-12-25T09:11:03.282Z,100857.81
2017-12-25T09:13:30.691Z,100862.17
2017-12-25T09:15:58.081Z,100859.01
2017-12-25T09:18:25.474Z,100860.72
2017-12-25T09:20:52.867Z,100854.05
2017-12-25T09:23:20.471Z,100855.24
2017-12-25T09:25:47.867Z,100853.45
2017-12-25T09:28:15.268Z,100850.92
2017-12-25T09:30:42.682Z,100852.25
2017-12-25T09:33:10.103Z,100856.07
2017-12-25T09:35:37.500Z,100855.31
2017-12-25T09:38:04.900Z,100857.93
2017-12-25T09:40:32.312Z,100860.75
2017-12-25T09:42:59.819Z,100851.13
2017-12-25T09:45:27.190Z,100859.31
2017-12-25T09:47:54.587Z,100859.91
2017-12-25T09:50:21.982Z,100854.52
2017-12-25T09:52:49.382Z,100859.25
2017-12-25T09:55:16.773Z,100864.95
2017-12-25T09:57:44.158Z,100853.84
2017-12-25T10:00:11.554Z,100850.41
2017-12-25T10:02:39.745Z,100839.22
2017-12-25T10:05:07.139Z,100848.45
2017-12-25T10:07:34.535Z,100845.61
2017-12-25T10:10:01.935Z,100844.72
2017-12-25T10:12:29.330Z,100837.53
2017-12-25T10:14:56.782Z,100836.59
2017-12-25T10:17:24.204Z,100840.76
2017-12-25T10:19:51.601Z,100837.27
2017-12-25T10:22:18.994Z,100835.55
2017-12-25T10:24:46.383Z,100829.39
2017-12-25T10:27:13.771Z,100830.95
2017-12-25T10:29:41.155Z,100822.24
2017-12-25T10:32:08.547Z,100810.16
2017-12-25T10:34:35.961Z,100809.78
2017-12-25T10:37:03.348Z,100805.36
2017-12-25T10:39:30.740Z,100804.94
2017-12-25T10:41:58.130Z,100807.87
2017-12-25T10:44:25.536Z,100798.65
2017-12-25T10:46:52.921Z,100790.73
2017-12-25T10:49:20.328Z,100790.09
2017-12-25T10:51:47.733Z,100783.95
2017-12-25T10:54:15.213Z,100783.13
2017-12-25T10:56:42.599Z,100785.41
2017-12-25T10:59:09.998Z,100781.56
2017-12-25T11:01:37.491Z,100779.23
2017-12-25T11:04:04.884Z,100771.98
2017-12-25T11:06:32.267Z,100772.27
2017-12-25T11:08:59.658Z,100774.19
2017-12-25T11:11:27.047Z,100759.95
2017-12-25T11:13:54.434Z,100766.60
2017-12-25T11:16:21.838Z,100756.34
2017-12-25T11:18:49.215Z,100751.79
2017-12-25T11:21:16.600Z,100742.94
2017-12-25T11:23:43.987Z,100734.02
2017-12-25T11:26:11.375Z,100744.78
2017-12-25T11:28:38.762Z,100742.74
2017-12-25T11:31:06.163Z,100739.46
2017-12-25T11:33:33.567Z,100736.47
2017-12-25T11:36:00.955Z,100725.09
2017-12-25T11:38:28.338Z,100727.66
2017-12-25T11:40:55.795Z,100715.44
2017-12-25T11:43:23.234Z,100712.25
2017-12-25T11:45:50.625Z,100720.83
2017-12-25T11:48:19.298Z,100714.69
2017-12-25T11:50:46.688Z,100710.88
2017-12-25T11:53:14.204Z,100707.83
2017-12-25T11:55:41.581Z,100711.64
2017-12-25T11:58:09.007Z,100707.28
2017-12-25T12:00:36.416Z,100695.23
2017-12-25T12:03:03.782Z,100692.69
2017-12-25T12:05:31.262Z,100688.27
2017-12-25T12:07:58.646Z,100684.20
2017-12-25T12:10:26.035Z,100693.92
2017-12-25T12:12:53.426Z,100689.05
2017-12-25T12:15:20.822Z,100693.44
2017-12-25T12:17:48.226Z,100690.25
2017-12-25T12:20:15.611Z,100691.03
2017-12-25T12:22:43.017Z,100690.24
2017-12-25T12:25:10.403Z,100689.38
2017-12-25T12:27:37.874Z,100687.66
2017-12-25T12:30:05.283Z,100667.22
2017-12-25T12:32:32.767Z,100674.30
2017-12-25T12:35:00.163Z,100670.92
2017-12-25T12:37:27.546Z,100666.89
2017-12-25T12:39:54.944Z,100665.58
2017-12-25T12:42:22.331Z,100667.98
2017-12-25T12:44:49.725Z,100661.27
2017-12-25T12:47:17.103Z,100654.71
2017-12-25T12:49:44.495Z,100659.27
2017-12-25T12:52:11.879Z,100645.13
2017-12-25T12:54:39.367Z,100649.26
2017-12-25T12:57:06.822Z,100644.84
2017-12-25T12:59:34.217Z,100649.41
2017-12-25T13:02:01.675Z,100635.27
2017-12-25T13:04:29.068Z,100637.36
2017-12-25T13:06:56.458Z,100639.84
2017-12-25T13:09:23.854Z,100637.83
2017-12-25T13:11:51.238Z,100627.75
2017-12-25T13:14:18.631Z,100631.42
2017-12-25T13:16:46.018Z,100627.09
2017-12-25T13:19:13.414Z,100628.45
2017-12-25T13:21:40.804Z,100636.55
2017-12-25T13:24:08.195Z,100627.14
2017-12-25T13:26:35.579Z,100629.43
2017-12-25T13:29:02.971Z,100627.83
2017-12-25T13:31:30.449Z,100617.39
2017-12-25T13:33:57.839Z,100622.27
2017-12-25T13:36:25.227Z,100613.48
2017-12-25T13:38:52.625Z,100612.12
2017-12-25T13:41:19.998Z,100618.00
2017-12-25T13:43:47.387Z,100605.26
2017-12-25T13:46:14.776Z,100610.39
2017-12-25T13:48:42.366Z,100611.60
2017-12-25T13:51:09.780Z,100605.72
2017-12-25T13:53:37.172Z,100608.70
2017-12-25T13:56:04.559Z,100613.08
2017-12-25T13:58:31.965Z,100600.19
2017-12-25T14:00:59.348Z,100601.67
2017-12-25T14:03:26.735Z,100597.98
2017-12-25T14:05:54.133Z,100593.91
2017-12-25T14:08:21.535Z,100599.37
2017-12-25T14:10:48.927Z,100598.58
2017-12-25T14:13:16.323Z,100598.61
2017-12-25T14:15:43.711Z,100582.34
2017-12-25T14:18:11.098Z,100583.47
2017-12-25T14:20:38.496Z,100580.44
2017-12-25T14:23:05.890Z,100578.70
2017-12-25T14:25:34.143Z,100578.09
2017-12-25T14:28:01.574Z,100572.64
2017-12-25T14:30:28.951Z,100578.44
2017-12-25T14:32:56.342Z,100575.44
2017-12-25T14:35:23.839Z,100576.97
2017-12-25T14:37:51.243Z,100567.45
2017-12-25T14:40:18.630Z,100576.80
2017-12-25T14:42:46.014Z,100573.19
2017-12-25T14:45:13.411Z,100564.04
2017-12-25T14:47:40.810Z,100565.65
2017-12-25T14:50:08.271Z,100562.42
2017-12-25T14:52:35.650Z,100561.61
2017-12-25T14:55:03.052Z,100559.80
2017-12-25T14:57:30.436Z,100561.58
2017-12-25T14:59:57.824Z,100564.16
2017-12-25T15:02:25.259Z,100557.02
2017-12-25T15:04:52.642Z,100553.42
2017-12-25T15:07:20.035Z,100551.59
2017-12-25T15:09:47.427Z,100544.02
2017-12-25T15:12:14.814Z,100535.70
2017-12-25T15:14:42.232Z,100537.31
2017-12-25T15:17:09.623Z,100538.97
2017-12-25T15:19:37.026Z,100534.59
2017-12-25T15:22:04.416Z,100533.15
2017-12-25T15:24:31.812Z,100533.36
2017-12-25T15:26:59.215Z,100527.72
2017-12-25T15:29:26.613Z,100526.42
2017-12-25T15:31:54.002Z,100524.57
2017-12-25T15:34:21.394Z,100518.11
2017-12-25T15:36:48.794Z,100514.37
2017-12-25T15:39:16.186Z,100515.28
2017-12-25T15:41:43.577Z,100512.39
2017-12-25T15:44:10.979Z,100505.80
2017-12-25T15:46:38.380Z,100510.77
2017-12-25T15:49:05.778Z,100505.11
2017-12-25T15:51:33.263Z,100500.57
2017-12-25T15:54:00.649Z,100493.05
2017-12-25T15:56:28.068Z,100496.14
2017-12-25T15:58:55.478Z,100480.06
2017-12-25T16:01:23.014Z,100472.83
2017-12-25T16:03:50.382Z,100480.33
2017-12-25T16:06:17.796Z,100476.59
2017-12-25T16:08:45.197Z,100470.10
2017-12-25T16:11:12.588Z,100472.31
2017-12-25T16:13:40.055Z,100459.97
2017-12-25T16:16:07.453Z,100455.66
2017-12-25T16:18:34.846Z,100456.02
2017-12-25T16:21:02.239Z,100454.90
2017-12-25T16:23:29.638Z,100452.38
2017-12-25T16:25:57.031Z,100445.58
2017-12-25T16:28:24.431Z,100442.52
2017-12-25T16:30:51.818Z,100442.31
2017-12-25T16:33:19.211Z,100447.77
2017-12-25T16:35:46.642Z,100441.05
2017-12-25T16:38:14.031Z,100443.73
2017-12-25T16:40:41.420Z,100436.89
2017-12-25T16:43:08.802Z,100435.83
2017-12-25T16:45:36.194Z,100437.36
2017-12-25T16:48:03.584Z,100429.70
2017-12-25T16:50:30.974Z,100431.62
2017-12-25T16:52:58.360Z,100428.83
2017-12-25T16:55:25.779Z,100423.83
2017-12-25T16:57:53.238Z,100422.92
2017-12-25T17:00:20.640Z,100427.92
2017-12-25T17:02:48.023Z,100421.98
2017-12-25T17:05:15.511Z,100417.02
2017-12-25T17:07:42.929Z,100420.31
2017-12-25T17:10:10.330Z,100424.00
2017-12-25T17:12:37.711Z,100420.23
2017-12-25T17:15:05.114Z,100415.94
2017-12-25T17:17:32.529Z,100420.18
2017-12-25T17:19:59.938Z,100412.30
2017-12-25T17:22:27.400Z,100408.85
2017-12-25T17:24:54.786Z,100407.59
2017-12-25T17:27:22.171Z,100397.77
2017-12-25T17:29:49.583Z,100400.67
2017-12-25T17:32:16.982Z,100396.50
2017-12-25T17:34:44.406Z,100394.51
2017-12-25T17:37:11.810Z,100395.98
2017-12-25T17:39:39.206Z,100396.19
2017-12-25T17:42:06.595Z,100398.28
2017-12-25T17:44:34.096Z,100395.03
2017-12-25T17:47:01.488Z,100391.61
2017-12-25T17:49:28.883Z,100394.28
2017-12-25T17:51:56.264Z,100386.27
2017-12-25T17:54:24.032Z,100393.90
2017-12-25T17:56:51.687Z,100383.37
2017-12-25T17:59:19.084Z,100378.02
2017-12-25T18:01:46.480Z,100377.35
2017-12-25T18:04:13.879Z,100369.08
2017-12-25T18:06:41.275Z,100368.88
2017-12-25T18:09:08.667Z,100371.38
2017-12-25T18:11:36.059Z,100361.17
2017-12-25T18:14:03.443Z,100365.16
2017-12-25T18:16:30.843Z,100359.52
2017-12-25T18:18:58.227Z,100350.26
2017-12-25T18:21:25.631Z,100347.41
2017-12-25T18:23:53.099Z,100343.66
2017-12-25T18:26:20.492Z,100342.94
2017-12-25T18:28:47.880Z,100348.88
2017-12-25T18:31:15.273Z,100350.02
2017-12-25T18:33:42.680Z,100339.93
2017-12-25T18:36:10.075Z,100345.88
2017-12-25T18:38:37.454Z,100338.81
2017-12-25T18:41:04.855Z,100341.16
2017-12-25T18:43:32.247Z,100340.63
2017-12-25T18:45:59.639Z,100337.95
2017-12-25T18:48:27.049Z,100328.31
2017-12-25T18:50:54.435Z,100324.31
2017-12-25T18:53:21.819Z,100326.16
2017-12-25T18:55:49.215Z,100320.66
2017-12-25T18:58:16.602Z,100317.68
2017-12-25T19:00:43.993Z,100309.01
2017-12-25T19:03:11.386Z,100313.02
2017-12-25T19:05:38.766Z,100311.72
2017-12-25T19:08:06.168Z,100298.63
2017-12-25T19:10:33.559Z,100296.12
2017-12-25T19:13:00.939Z,100288.55
2017-12-25T19:15:28.348Z,100280.73
2017-12-25T19:17:55.850Z,100270.86
2017-12-25T19:20:23.276Z,100274.49
2017-12-25T19:22:50.671Z,100265.44
2017-12-25T19:25:18.059Z,100268.60
2017-12-25T19:27:45.448Z,100264.65
2017-12-25T19:30:12.843Z,100267.05
2017-12-25T19:32:40.239Z,100255.98
2017-12-25T19:35:07.631Z,100261.31
2017-12-25T19:37:35.015Z,100259.59
2017-12-25T19:40:02.407Z,100262.17
2017-12-25T19:42:29.800Z,100260.23
2017-12-25T19:44:57.182Z,100255.88
2017-12-25T19:47:24.586Z,100257.11
2017-12-25T19:49:51.983Z,100253.35
2017-12-25T19:52:19.362Z,100243.70
2017-12-25T19:54:46.752Z,100233.95
2017-12-25T19:57:14.135Z,100237.41
2017-12-25T19:59:41.563Z,100237.05
2017-12-25T20:02:08.960Z,100232.95
2017-12-25T20:04:36.340Z,100237.81
2017-12-25T20:07:03.741Z,100228.92
2017-12-25T20:09:31.202Z,100223.66
2017-12-25T20:11:58.590Z,100225.88
2017-12-25T20:14:25.974Z,100216.16
2017-12-25T20:16:53.379Z,100210.83
2017-12-25T20:19:20.756Z,100202.57
2017-12-25T20:21:48.142Z,100191.20
2017-12-25T20:24:15.533Z,100180.26
2017-12-25T20:26:42.967Z,100188.58
2017-12-25T20:29:10.349Z,100190.91
2017-12-25T20:31:37.741Z,100170.61
2017-12-25T20:34:05.149Z,100172.47
2017-12-25T20:36:32.548Z,100169.75
2017-12-25T20:38:59.923Z,100174.08
2017-12-25T20:41:28.318Z,100172.89
2017-12-25T20:43:55.698Z,100169.84
2017-12-25T20:46:23.136Z,100165.08
2017-12-25T20:48:50.573Z,100163.88
2017-12-25T20:51:18.047Z,100158.95
2017-12-25T20:53:45.453Z,100154.89
2017-12-25T20:56:12.878Z,100143.23
2017-12-25T20:58:40.255Z,100145.46
2017-12-25T21:01:07.659Z,100138.41
2017-12-25T21:03:35.043Z,100140.57
2017-12-25T21:06:02.496Z,100130.27
2017-12-25T21:08:29.884Z,100126.84
2017-12-25T21:10:57.274Z,100128.66
2017-12-25T21:13:25.477Z,100122.05
2017-12-25T21:15:52.859Z,100121.72
2017-12-25T21:18:20.239Z,100117.24
2017-12-25T21:20:47.690Z,100113.80
2017-12-25T21:23:15.120Z,100105.46
2017-12-25T21:25:42.510Z,100109.25
2017-12-25T21:28:09.895Z,100105.02
2017-12-25T21:30:37.314Z,100103.42
2017-12-25T21:33:04.709Z,100097.64
2017-12-25T21:35:32.107Z,100097.91
2017-12-25T21:37:59.493Z,100098.31
2017-12-25T21:40:26.883Z,100094.27
2017-12-25T21:42:54.267Z,100092.55
2017-12-25T21:45:21.657Z,100088.44
2017-12-25T21:47:49.135Z,100083.34
2017-12-25T21:50:16.531Z,100086.30
2017-12-25T21:52:43.919Z,100073.96
2017-12-25T21:55:11.312Z,100068.16
2017-12-25T21:57:38.710Z,100069.71
2017-12-25T22:00:06.095Z,100068.53
2017-12-25T22:02:33.489Z,100061.50
2017-12-25T22:05:00.868Z,100058.61
2017-12-25T22:07:28.643Z,100054.19
2017-12-25T22:09:56.030Z,100050.95
2017-12-25T22:12:23.414Z,100051.50
2017-12-25T22:14:50.807Z,100049.26
2017-12-25T22:17:18.941Z,100044.99
2017-12-25T22:19:46.328Z,100043.57
2017-12-25T22:22:13.711Z,100031.16
2017-12-25T22:24:41.107Z,100039.27
2017-12-25T22:27:08.499Z,100034.95
2017-12-25T22:29:35.885Z,100038.16
2017-12-25T22:32:03.275Z,100024.87
2017-12-25T22:34:30.664Z,100027.34
2017-12-25T22:36:58.062Z,100017.77
2017-12-25T22:39:25.447Z,100023.21
2017-12-25T22:41:52.867Z,100017.45
2017-12-25T22:44:20.235Z,100012.38
2017-12-25T22:46:47.701Z,100013.48
2017-12-25T22:49:15.071Z,99999.66
2017-12-25T22:51:43.390Z,99997.26
2017-12-25T22:54:10.775Z,99993.47
2017-12-25T22:56:38.158Z,99992.62
2017-12-25T22:59:05.579Z,99986.67
2017-12-25T23:01:33.006Z,99980.60
2017-12-25T23:04:00.392Z,99983.95
2017-12-25T23:06:27.771Z,99977.69
2017-12-25T23:08:55.154Z,99972.33
2017-12-25T23:11:22.549Z,99963.13
2017-12-25T23:13:49.947Z,99952.19
2017-12-25T23:16:17.337Z,99943.70
2017-12-25T23:18:44.715Z,99940.27
2017-12-25T23:21:12.107Z,99940.97
2017-12-25T23:23:39.496Z,99929.97
2017-12-25T23:26:06.912Z,99930.72
2017-12-25T23:28:34.303Z,99924.11
2017-12-25T23:31:01.791Z,99923.59
2017-12-25T23:33:30.130Z,99917.84
2017-12-25T23:35:57.515Z,99910.56
2017-12-25T23:38:24.905Z,99906.23
2017-12-25T23:40:52.289Z,99906.58
2017-12-25T23:43:19.681Z,99897.55
2017-12-25T23:45:47.090Z,99897.05
2017-12-25T23:48:14.458Z,99892.17
2017-12-25T23:50:41.963Z,99892.45
2017-12-25T23:53:09.370Z,99880.33
2017-12-25T23:55:36.755Z,99880.38
2017-12-25T23:58:04.143Z,99878.56
